KSLG/SLG METAR and TAF weather

Enter ICAO airport designator
Station Type Date Time Source
KSLG METAR 2019/05/26 23:56 UTC NOAA

KSLG 262356Z AUTO 15006KT 10SM CLR 26/22 A3002 RMK AO2 SLP156 T02560217 10278 20222 56027


Station Type Date Time Source
KSLG Decoded METAR 2019/05/26 23:56 UTC NOAA

Siloam Springs, Smith Field Airport, AR, United States (KSLG) 36-12N 094-29W
May 26, 2019 - 07:56 PM EDT / 2019.05.26 2356 UTC
Wind: from the SSE (150 degrees) at 7 MPH (6 KT):0
Visibility: 10 mile(s):0
Sky conditions: clear
Temperature: 78.1 F (25.6 C)
Dew Point: 71.1 F (21.7 C)
Relative Humidity: 79%
Pressure (altimeter): 30.02 in. Hg (1016 hPa)
Pressure tendency: 0.08 inches (2.7 hPa) lower than three hours ago
ob: KSLG 262356Z AUTO 15006KT 10SM CLR 26/22 A3002 RMK AO2 SLP156 T02560217 10278 20222 56027
cycle: 0

Station Type Date Time Source
KSLG TAF UTC NOAA

Error!

Example: see airport list